Ampton, United Kingdom
Current Conditions -  °F | °C
As of 5:43 AM on Friday 28 Nov 2014 (Local Time) from EGUL Reporting Station
Overcast Overcast  
Wind Chill: 50°   Ceiling: 1200
Heat Index: 50°   Visibility: 6mi
Dew Point: 50°   Wind: 9mph
Humidity: 100%   Direction: 80°E
Pressure: 29.62"   Gusts: NA
Location:  52.33°N, 0.85°E
Report Text: EGUL 280543Z AUTO 08008KT 9999 SCT007 OVC012 10/10 A2962 RMK AO2 CIG 007V012
Loading
Personal Weather Stations






























Interactive Weather Map New forecast layout! Learn more

10-Day Weather Forecast

Advertisements
Track Severe Weather on mobile